Date,TemperatureHighF,TemperatureAvgF,TemperatureLowF,DewpointHighF,DewpointAvgF,DewpointLowF,HumidityHigh,HumidityAvg,HumidityLow,PressureMaxIn,PressureMinIn,WindSpeedMaxMPH,WindSpeedAvgMPH,GustSpeedMaxMPH,PrecipitationSumIn
2013-1-1,31.0,20.7,8.0,23.0,14.9,4.0,82,76,72,30.00,29.75,20,3,22,0.00
2013-1-2,13.0,6.2,-1.0,8.0,2.9,-6.0,84,82,80,30.18,29.98,27,4,27,0.00
2013-1-3,16.0,6.9,-3.0,11.0,2.9,-6.0,84,82,78,30.25,30.11,19,2,19,0.00
2013-1-4,31.0,19.6,4.0,23.0,14.6,0.0,83,76,73,30.12,29.88,12,0,14,0.00
2013-1-5,32.0,23.4,8.0,23.0,17.6,4.0,82,75,73,30.48,29.88,37,4,19,0.01
2013-1-6,27.0,17.7,9.0,21.0,12.8,8.0,82,76,72,30.46,30.10,12,1,0,0.01
2013-1-7,20.0,13.1,5.0,14.0,9.1,4.0,83,79,74,30.61,30.17,23,6,0,0.00
2013-1-8,42.0,29.4,12.0,33.0,22.1,8.0,79,73,68,30.55,30.38,17,1,0,0.03
2013-1-9,38.0,31.5,19.0,29.0,23.8,14.0,75,72,66,30.61,30.04,15,0,0,0.02
2013-1-10,41.0,34.7,25.0,32.0,26.9,18.0,74,72,71,30.71,30.03,36,7,0,0.03
2013-1-11,33.0,28.2,21.0,26.0,21.0,14.0,76,73,72,30.73,30.48,17,3,0,0.00
2013-1-12,38.0,34.7,30.0,29.0,26.4,23.0,73,71,69,30.49,30.31,13,1,0,0.00
2013-1-13,45.0,39.9,35.0,31.0,26.8,23.0,70,59,46,30.37,30.17,9,0,0,0.01
2013-1-14,50.0,43.2,34.0,41.0,28.0,24.0,73,56,39,30.40,30.07,24,2,0,0.01
2013-1-15,39.0,30.0,24.0,31.0,22.8,18.0,74,73,71,30.52,30.37,17,2,0,0.00
2013-1-16,35.0,29.7,25.0,26.0,21.0,18.0,74,68,58,30.49,29.96,20,7,0,0.17
2013-1-17,40.0,27.8,9.0,31.0,19.8,8.0,82,70,60,30.34,29.93,25,5,0,0.03
2013-1-18,12.0,7.2,2.0,8.0,4.8,0.0,83,82,81,30.57,30.30,26,6,0,0.00
2013-1-19,32.0,25.2,10.0,24.0,18.7,8.0,81,74,67,30.57,30.10,13,0,0,0.03
2013-1-20,47.0,35.3,20.0,38.0,27.2,14.0,76,71,61,30.10,29.64,28,3,0,0.09
2013-1-21,20.0,15.2,10.0,14.0,10.9,8.0,81,79,76,30.24,29.99,23,4,0,0.00
2013-1-22,14.0,8.4,1.0,8.0,4.9,0.0,83,81,78,30.15,29.96,22,6,0,0.00
2013-1-23,5.0,-0.5,-6.0,4.0,-3.6,-6.0,85,84,83,30.24,30.15,19,4,0,0.00
2013-1-24,7.0,0.1,-7.0,4.0,-2.0,-6.0,85,84,82,30.24,30.04,26,4,0,0.00
2013-1-25,17.0,8.4,0.0,14.0,5.0,-6.0,84,81,78,30.34,30.22,23,3,13,0.00
2013-1-26,15.0,9.6,4.0,11.0,6.8,0.0,83,81,79,30.27,30.13,21,6,25,0.00
2013-1-27,19.0,11.9,5.0,14.0,8.7,4.0,83,80,77,30.57,30.25,28,7,29,0.00
2013-1-28,24.0,16.4,7.0,18.0,11.5,4.0,82,78,74,30.59,30.27,19,2,19,0.00
2013-1-29,33.0,25.2,14.0,26.0,19.1,8.0,77,74,72,30.43,30.26,13,1,13,0.00
2013-1-30,52.0,42.1,30.0,37.0,26.5,23.0,73,54,43,30.38,29.70,16,3,20,0.30
2013-1-31,53.0,43.5,30.0,41.0,31.6,23.0,73,63,44,29.70,29.07,40,4,40,0.29
2013-2-1,30.0,20.9,10.0,23.0,15.0,8.0,81,76,73,30.20,29.58,22,4,23,0.00
2013-2-2,22.0,15.0,4.0,16.0,10.8,0.0,83,79,75,30.40,30.19,13,1,14,0.00
2013-2-3,26.0,20.9,18.0,18.0,15.3,14.0,77,75,74,30.27,29.85,25,8,25,0.00
2013-2-4,25.0,18.4,12.0,18.0,13.4,8.0,80,77,74,30.00,29.74,26,5,26,0.00
2013-2-5,17.0,12.0,7.0,14.0,8.3,4.0,82,80,78,30.23,30.00,15,1,15,0.00
2013-2-6,32.0,19.5,8.0,24.0,14.2,4.0,82,77,73,30.43,30.10,17,2,21,0.01
2013-2-7,14.0,6.7,3.0,8.0,4.2,0.0,83,82,79,30.81,30.43,26,4,26,0.00
2013-2-8,18.0,9.7,3.0,14.0,6.0,0.0,83,81,77,30.81,30.10,34,11,38,0.02
2013-2-9,15.0,11.7,8.0,11.0,8.1,4.0,82,79,78,30.22,29.80,47,23,50,1.27
2013-2-10,29.0,19.1,10.0,23.0,13.6,8.0,81,77,73,30.54,30.22,25,6,25,0.00
2013-2-11,38.0,23.8,8.0,26.0,16.4,4.0,82,71,52,30.54,29.76,20,2,21,0.28
2013-2-12,41.0,35.4,31.0,32.0,24.6,16.0,72,64,52,29.92,29.68,15,1,15,0.02
2013-2-13,41.0,33.2,27.0,32.0,25.7,21.0,73,72,71,29.99,29.89,12,1,12,0.00
2013-2-14,37.0,29.5,21.0,29.0,22.3,14.0,76,73,72,30.21,29.90,19,4,19,0.00
2013-2-15,42.0,32.3,19.0,33.0,24.3,14.0,76,71,63,30.21,30.13,18,1,19,0.00
2013-2-16,34.0,29.5,24.0,26.0,20.8,16.0,73,68,57,30.14,29.94,22,4,22,0.00
2013-2-17,24.0,19.3,15.0,16.0,14.1,11.0,79,76,72,29.94,29.17,41,14,45,0.33
2013-2-18,26.0,19.2,14.0,18.0,13.6,8.0,79,77,74,30.10,29.45,38,10,38,0.04
2013-2-19,39.0,28.3,17.0,29.0,21.7,14.0,78,73,65,30.27,29.90,19,4,19,0.06
2013-2-20,40.0,34.6,26.0,31.0,25.5,18.0,74,68,58,29.90,29.58,37,7,39,0.75
2013-2-21,33.0,25.6,20.0,26.0,18.7,14.0,76,74,72,30.27,29.76,29,8,31,0.02
2013-2-22,35.0,29.2,24.0,26.0,22.0,18.0,74,73,72,30.57,30.27,26,8,28,0.00
2013-2-23,30.0,26.9,21.0,23.0,20.2,14.0,75,73,72,30.56,30.27,17,7,18,0.00
2013-2-24,30.0,27.1,25.0,23.0,19.8,18.0,74,71,68,30.27,29.98,21,8,21,0.00
2013-2-25,37.0,25.9,17.0,29.0,19.2,14.0,78,74,72,30.43,30.07,20,5,20,0.00
2013-2-26,39.0,27.4,16.0,31.0,20.6,11.0,78,74,71,30.56,30.43,9,1,9,0.00
2013-2-27,37.0,29.9,21.0,28.0,22.0,14.0,74,70,60,30.48,29.92,33,11,34,0.05
2013-2-28,37.0,34.1,30.0,28.0,21.9,18.0,67,60,54,29.94,29.71,34,14,34,0.48
2013-3-1,31.0,29.7,28.0,23.0,20.6,18.0,72,67,60,29.82,29.70,25,9,25,0.01
2013-3-2,35.0,31.4,29.0,26.0,22.5,16.0,72,67,59,29.80,29.76,18,5,19,0.08
2013-3-3,41.0,34.5,32.0,32.0,25.1,21.0,72,67,62,29.78,29.66,14,2,14,0.01
2013-3-4,33.0,30.8,29.0,24.0,21.7,18.0,73,66,60,29.83,29.61,24,6,24,0.04
2013-3-5,41.0,34.8,32.0,32.0,26.1,23.0,72,69,65,30.34,29.83,22,12,23,0.01
2013-3-6,36.0,32.4,30.0,28.0,24.4,23.0,73,72,69,30.49,30.34,29,13,29,0.03
2013-3-7,36.0,31.9,30.0,28.0,24.1,23.0,73,73,72,30.44,30.28,32,16,32,0.00
2013-3-8,44.0,34.6,28.0,36.0,27.0,21.0,73,72,71,30.40,30.25,37,18,37,0.00
2013-3-9,41.0,31.4,25.0,32.0,23.9,18.0,74,73,71,30.59,30.39,23,10,25,0.00
2013-3-10,33.0,28.0,25.0,26.0,20.8,18.0,74,73,72,30.64,30.51,12,4,14,0.00
2013-3-11,43.0,36.7,30.0,35.0,28.2,23.0,73,71,64,30.53,30.40,20,2,20,0.00
2013-3-12,48.0,41.7,38.0,40.0,31.6,26.0,73,66,51,30.41,30.05,24,8,24,0.40
2013-3-13,46.0,40.8,30.0,33.0,25.2,8.0,73,54,27,30.05,29.84,30,4,35,0.71
2013-3-14,46.0,32.4,22.0,37.0,24.8,16.0,75,72,69,29.90,29.81,22,2,23,0.00
2013-3-15,32.0,22.4,16.0,24.0,16.4,11.0,78,75,73,29.93,29.79,23,5,25,0.00
2013-3-16,34.0,25.9,19.0,26.0,19.1,14.0,77,74,72,30.07,29.79,19,3,20,0.00
2013-3-17,29.0,21.0,13.0,21.0,15.1,8.0,80,76,73,30.48,30.07,30,5,31,0.02
2013-3-18,32.0,20.3,9.0,23.0,14.8,8.0,82,76,73,30.62,30.48,18,2,20,0.00
2013-3-19,28.0,23.8,21.0,21.0,16.4,14.0,75,72,66,30.50,29.83,34,13,34,0.12
2013-3-20,33.0,24.1,16.0,26.0,17.8,11.0,78,74,69,29.89,29.72,31,5,32,0.00
2013-3-21,40.0,30.1,20.0,32.0,22.7,14.0,76,73,71,29.97,29.77,17,2,18,0.00
2013-3-22,39.0,29.5,22.0,31.0,22.2,16.0,75,73,71,29.79,29.74,20,5,20,0.00
2013-3-23,40.0,31.2,23.0,31.0,23.6,16.0,75,73,71,29.78,29.61,23,4,26,0.00
2013-3-24,42.0,35.9,30.0,33.0,27.7,23.0,73,72,71,29.95,29.75,23,5,25,0.00
2013-3-25,41.0,35.0,26.0,32.0,27.1,18.0,74,72,71,29.95,29.79,20,6,20,0.00
2013-3-26,46.0,36.4,28.0,37.0,28.5,21.0,73,72,71,29.87,29.70,28,10,28,0.00
2013-3-27,38.0,34.5,29.0,29.0,25.7,23.0,73,70,66,30.04,29.85,20,6,21,0.07
2013-3-28,47.0,38.7,32.0,38.0,30.3,24.0,73,72,70,30.13,30.03,17,6,19,0.01
2013-3-29,51.0,43.3,33.0,43.0,34.9,24.0,73,72,70,30.19,30.12,17,3,18,0.00
2013-3-30,53.0,40.5,27.0,44.0,32.4,21.0,73,72,71,30.26,30.18,21,3,21,0.00
2013-3-31,50.0,38.1,24.0,41.0,29.9,18.0,74,72,67,30.34,30.11,18,4,18,0.00
2013-4-1,45.0,39.3,31.0,36.0,28.8,21.0,73,65,42,30.10,29.69,31,6,34,0.61
2013-4-2,36.0,29.6,24.0,28.0,22.4,18.0,74,73,72,29.97,29.82,20,3,20,0.00
2013-4-3,39.0,30.9,25.0,31.0,23.3,18.0,74,73,71,30.16,29.94,26,5,31,0.00
2013-4-4,50.0,35.8,27.0,41.0,28.0,21.0,73,72,71,30.37,30.15,21,3,21,0.00
2013-4-5,50.0,40.8,35.0,41.0,32.5,26.0,73,72,71,30.17,29.87,22,3,22,0.00
2013-4-6,38.0,30.3,23.0,29.0,23.1,16.0,75,73,71,30.54,29.95,33,8,33,0.01
2013-4-7,41.0,32.9,21.0,32.0,25.2,14.0,76,73,70,30.55,30.18,25,4,26,0.00
2013-4-8,55.0,46.3,34.0,47.5,37.7,26.0,74,72,65,30.37,30.10,23,5,23,0.00
2013-4-9,40.0,37.4,33.0,31.0,27.4,24.0,72,66,59,30.37,30.12,16,3,16,0.30
2013-4-10,50.0,41.6,37.0,41.0,31.1,24.0,72,65,52,30.20,30.11,10,1,11,0.05
2013-4-11,47.0,40.9,34.0,38.0,32.2,26.0,72,71,63,30.39,30.08,25,8,25,0.01
2013-4-12,37.0,32.5,29.0,29.0,24.3,21.0,73,71,63,30.47,30.13,24,9,24,0.25
2013-4-13,40.0,35.0,31.0,32.0,14.7,-40.0,72,55,6,30.13,29.97,22,6,22,0.07
2013-4-14,43.0,37.8,34.0,33.0,26.9,23.0,71,64,57,30.36,30.12,14,1,14,0.05
2013-4-15,44.0,37.1,31.0,36.0,27.4,18.0,72,67,41,30.65,30.36,16,4,17,0.01
2013-4-16,50.0,42.2,37.0,41.0,32.9,28.0,73,69,63,30.65,30.16,23,4,25,0.15
2013-4-17,57.0,48.2,40.0,49.0,39.1,32.0,74,71,60,30.58,30.16,28,7,28,0.01
2013-4-18,44.0,39.3,31.0,36.0,31.0,23.0,73,71,71,30.71,30.41,18,6,18,0.00
2013-4-19,57.0,49.1,42.0,46.0,36.7,29.0,72,62,49,30.42,29.94,19,4,23,0.01
2013-4-20,56.0,49.5,41.0,47.5,27.5,-40.0,74,55,34,30.33,29.84,19,2,20,0.32
2013-4-21,48.0,39.6,32.0,40.0,31.3,24.0,73,72,71,30.91,30.33,28,6,28,0.00
2013-4-22,44.0,36.6,27.0,36.0,28.6,21.0,73,72,71,31.05,30.89,20,4,20,0.00
2013-4-23,41.0,36.2,28.0,32.0,26.9,18.0,72,68,58,30.89,30.43,17,7,17,0.05
2013-4-24,51.0,44.5,41.0,39.0,28.7,-40.0,66,54,9,30.43,30.00,20,7,20,0.42
2013-4-25,62.0,49.8,41.0,54.0,30.9,-40.0,75,58,3,30.51,30.04,19,3,19,0.03
2013-4-26,52.0,43.5,33.0,43.0,35.1,24.0,73,72,70,30.67,30.51,18,5,18,0.00
2013-4-27,62.0,43.2,30.0,53.5,34.6,18.0,75,71,49,30.67,30.54,17,2,17,0.00
2013-4-28,55.0,44.3,32.0,46.0,35.4,23.0,74,71,60,30.60,30.49,15,3,16,0.00
2013-4-29,56.0,44.6,32.0,47.5,35.5,21.0,74,70,57,30.55,30.47,17,4,17,0.00
2013-4-30,62.0,47.2,33.0,54.0,38.2,21.0,75,70,54,30.61,30.48,16,3,16,0.00
2013-5-1,66.0,48.1,34.0,57.0,39.6,24.0,76,72,60,30.72,30.60,18,3,18,0.00
2013-5-2,57.0,45.9,36.0,49.0,37.1,24.0,74,71,63,30.78,30.64,16,4,16,0.00
2013-5-3,58.0,46.7,39.0,50.0,38.3,31.0,74,72,70,30.80,30.63,16,6,16,0.00
2013-5-4,53.0,44.4,37.0,43.0,36.0,28.0,73,72,68,30.65,30.56,19,6,19,0.00
2013-5-5,60.0,46.6,33.0,52.0,38.2,23.0,75,72,63,30.57,30.49,18,2,18,0.00
2013-5-6,61.0,45.2,33.0,53.5,35.0,23.0,75,67,46,30.54,30.42,20,6,20,0.00
2013-5-7,69.0,51.5,40.0,60.0,39.1,-40.0,76,63,42,30.43,30.38,17,3,17,0.00
2013-5-8,64.0,51.7,44.0,54.5,21.4,-40.0,74,44,1,30.53,30.41,17,5,18,0.00
2013-5-9,54.0,50.9,48.0,39.0,5.7,-40.0,62,27,1,30.41,30.17,15,5,15,0.45
2013-5-10,60.0,51.8,47.0,49.0,-1.4,-40.0,70,27,1,30.23,30.13,17,4,18,0.01
2013-5-11,55.0,50.6,46.0,41.0,7.0,-40.0,67,26,1,30.21,29.97,18,5,18,0.14
2013-5-12,56.0,51.2,47.0,36.0,-16.9,-40.0,48,11,1,29.97,29.78,18,3,18,0.18
2013-5-13,54.0,47.7,39.0,39.0,9.6,-40.0,68,27,1,30.22,29.92,19,2,23,0.01
2013-5-14,57.0,47.7,41.0,49.0,37.8,21.0,74,68,41,30.23,30.16,17,4,18,0.00
2013-5-15,61.0,49.5,36.0,53.5,40.5,28.0,75,71,52,30.24,29.93,22,3,22,0.25
2013-5-16,70.0,54.3,46.0,62.5,25.9,-40.0,77,51,1,30.01,29.82,23,5,23,0.00
2013-5-17,58.0,51.0,42.0,50.0,42.5,33.0,74,73,71,30.42,30.00,21,6,28,0.00
2013-5-18,53.0,45.3,37.0,44.0,36.7,28.0,73,72,64,30.59,30.42,20,5,20,0.00
2013-5-19,54.0,45.8,35.0,46.0,35.6,23.0,74,68,50,30.64,30.50,19,6,19,0.00
2013-5-20,56.0,49.8,47.0,38.0,-24.6,-40.0,67,13,1,30.50,30.19,22,6,23,0.63
2013-5-21,50.0,47.3,46.0,31.0,-36.7,-40.0,51,1,1,30.32,30.23,13,5,13,0.17
2013-5-22,49.0,47.6,46.0,33.0,-32.2,-40.0,55,5,1,30.30,30.17,17,9,20,0.41
2013-5-23,58.0,51.6,45.0,26.0,-39.2,-40.0,30,0,3,30.20,30.09,16,4,17,0.00
2013-5-24,59.0,55.0,49.0,14.0,-38.4,-40.0,17,0,10,30.10,29.93,21,5,28,1.11
2013-5-25,49.0,48.1,47.0,21.0,-38.2,-40.0,32,1,1,30.06,29.94,26,11,27,0.20
2013-5-26,50.0,46.0,41.0,39.0,3.7,-40.0,71,35,2,30.14,29.86,16,6,17,0.29
2013-5-27,62.0,50.5,38.0,54.0,41.3,26.0,75,70,55,30.39,30.12,25,4,26,0.00
2013-5-28,70.0,52.6,36.0,62.5,43.4,21.0,77,70,48,30.49,30.39,19,2,19,0.00
2013-5-29,52.0,48.2,42.0,36.0,-21.2,-40.0,72,17,6,30.47,30.23,16,5,17,0.31
2013-5-30,83.0,61.0,48.0,75.5,12.3,-40.0,78,37,8,30.29,30.20,12,1,12,0.01
2013-5-31,87.0,69.5,53.0,29.0,-25.3,-40.0,36,1,1,30.31,30.17,13,1,14,0.00
2013-6-1,85.0,68.5,56.0,53.0,-18.7,-40.0,73,6,23,30.21,30.09,16,2,16,0.00
2013-6-2,79.0,64.2,57.0,71.0,54.6,43.0,76,71,59,30.10,30.00,25,4,25,0.01
2013-6-3,70.0,60.3,55.0,47.0,-19.9,-40.0,63,8,8,30.10,29.99,15,2,15,0.00
2013-6-4,64.0,58.3,49.0,-23.0,-30.1,-40.0,0,0,100,30.26,30.01,21,4,22,0.00
2013-6-5,70.0,56.8,44.0,-23.0,-33.3,-40.0,0,0,100,30.41,30.26,18,3,20,0.00
2013-6-6,67.0,55.0,45.0,40.0,-33.0,-40.0,64,1,2,30.50,30.40,15,3,15,0.00
2013-6-7,59.0,53.4,51.0,50.0,42.2,36.0,74,66,54,30.43,30.25,16,5,16,0.23
2013-6-8,61.0,55.0,51.0,40.0,-28.1,-40.0,63,5,44,30.25,29.89,26,9,28,1.34
2013-6-9,63.0,55.4,51.0,-23.0,-37.0,-40.0,0,0,100,30.39,30.23,17,3,17,0.00
2013-6-10,68.0,58.5,52.0,-23.0,-30.6,-40.0,0,0,100,30.49,30.32,15,3,15,0.00
2013-6-11,53.0,52.1,50.0,-40.0,-40.0,-40.0,0,0,100,30.32,29.77,31,10,31,0.48
2013-6-12,56.0,52.9,50.0,-40.0,-40.0,-40.0,0,0,100,29.96,29.72,22,9,25,0.25
2013-6-13,69.0,56.8,50.0,21.0,-33.3,-40.0,28,0,28,30.05,29.95,19,4,21,0.10
2013-6-14,61.0,53.6,48.0,-23.0,-39.7,-40.0,0,0,100,30.00,29.94,13,3,15,0.00
2013-6-15,74.0,60.9,45.0,29.0,-29.5,-40.0,45,0,45,30.13,29.95,23,3,23,0.00
2013-6-16,72.0,59.2,48.0,41.0,-22.5,-40.0,59,4,1,30.18,29.99,17,3,17,0.00
2013-6-17,78.0,63.6,54.0,44.0,-10.0,-40.0,66,10,1,30.10,29.97,26,2,26,0.52
2013-6-22,70.0,63.4,56.0,46.0,10.5,-40.0,61,17,1,30.47,30.39,9,2,10,0.00
2013-6-23,66.0,59.3,55.0,54.0,33.4,-40.0,67,47,1,30.41,30.22,17,4,17,0.20
2013-6-24,85.0,70.9,60.0,77.0,58.4,-13.0,78,66,35,30.23,30.08,19,1,19,0.06
2013-6-25,69.0,67.4,64.0,59.0,56.4,51.0,71,68,62,30.09,30.08,6,1,7,0.00
2013-6-30,70.0,62.5,59.0,66.7,44.5,29.0,94,53,28,30.21,30.05,15,5,15,0.01
2013-7-1,72.0,63.1,59.0,61.5,45.8,37.0,72,54,42,30.39,30.20,10,2,10,0.03
2013-7-2,64.0,59.2,56.0,47.5,44.3,40.0,68,58,50,30.49,30.38,21,6,21,0.38
2013-7-3,75.0,62.4,56.0,66.7,50.9,40.0,75,67,49,30.47,30.39,15,3,15,0.00
2013-7-4,89.0,73.4,60.0,81.7,64.5,43.0,79,74,57,30.45,30.32,14,1,14,0.00
2013-7-5,91.0,76.3,64.0,82.5,67.0,47.5,79,73,53,30.39,30.26,14,1,16,0.00
2013-7-6,85.0,75.8,64.0,77.7,67.0,47.5,79,74,57,30.28,30.19,17,2,20,0.00
2013-7-7,88.0,77.4,67.0,80.8,69.9,59.5,79,78,76,30.23,30.18,13,1,13,0.00
2013-7-8,74.0,65.8,59.0,66.3,57.9,50.5,77,76,74,30.34,30.17,16,3,16,0.01
2013-7-9,67.0,62.2,59.0,60.0,53.7,50.5,77,74,71,30.41,30.34,12,3,12,0.00
2013-7-10,64.0,60.6,59.0,56.0,50.7,36.0,75,70,61,30.37,30.05,14,4,15,0.00
2013-7-11,75.0,66.0,60.0,66.3,48.4,37.0,76,55,39,30.23,30.01,14,1,14,0.04
2013-7-12,77.0,67.0,58.0,69.7,59.1,47.5,78,76,70,30.47,30.23,16,5,17,0.00
2013-7-13,81.0,67.2,55.0,73.3,58.9,42.0,78,74,56,30.61,30.47,13,2,16,0.00
2013-7-14,82.0,69.6,57.0,74.3,61.6,47.5,78,76,68,30.55,30.44,15,2,15,0.00
2013-7-15,91.0,76.5,62.0,83.0,68.2,49.0,79,76,59,30.45,30.34,15,1,18,0.00
2013-7-16,88.0,75.8,64.0,79.0,67.9,56.0,79,78,76,30.45,30.33,9,3,9,0.00
2013-7-17,80.0,69.5,62.0,71.0,61.4,53.0,78,76,62,30.47,30.18,9,2,9,0.18
2013-7-18,85.0,72.3,65.0,77.0,63.2,47.0,79,74,54,30.29,30.17,9,2,9,0.02
2013-7-19,85.0,71.5,64.0,77.0,61.2,48.0,79,71,57,30.23,29.91,9,2,9,0.01
2013-7-20,88.0,74.7,64.0,79.0,66.0,54.0,79,76,65,30.03,29.86,9,2,9,0.17
2013-7-21,76.0,65.3,56.0,68.0,57.3,47.0,78,76,74,30.29,30.03,9,2,9,0.00
2013-7-22,69.0,61.2,53.0,61.0,52.7,41.0,77,74,63,30.33,30.21,9,2,9,0.00
2013-7-23,64.0,61.2,57.0,51.0,42.9,37.0,70,52,39,30.21,29.79,9,3,9,0.69
2013-7-24,76.0,66.5,58.0,67.0,51.4,36.0,77,60,39,30.22,29.81,9,3,9,0.00
2013-7-25,72.0,61.1,54.0,64.0,52.8,46.0,77,74,68,30.39,30.21,9,3,9,0.02
2013-7-26,66.0,62.6,59.0,55.0,50.9,46.0,73,66,52,30.35,30.09,9,4,9,1.07
2013-7-27,81.0,66.5,59.0,73.0,55.9,43.0,78,69,55,30.31,30.09,9,2,9,0.01
2013-7-28,66.0,61.7,58.0,56.0,48.9,40.0,74,63,47,30.35,30.28,9,3,9,0.04
2013-7-29,68.0,62.1,59.0,59.0,49.4,42.0,74,64,52,30.33,30.25,9,3,9,0.00
2013-7-30,78.0,66.4,60.0,71.0,53.2,40.0,78,64,47,30.32,30.27,9,1,9,0.01
2013-7-31,80.0,67.0,56.0,72.0,58.9,47.0,78,76,73,30.38,30.28,9,1,9,0.00
2013-8-1,71.0,61.8,54.0,63.0,52.3,40.0,77,71,59,30.31,30.17,20,4,20,0.00
2013-8-2,64.0,61.4,60.0,46.0,43.5,40.0,60,52,47,30.17,30.03,13,2,13,0.30
2013-8-3,75.0,62.5,57.0,67.0,47.6,37.0,77,59,45,30.08,29.99,12,1,12,0.03
2013-8-4,79.0,65.2,55.0,71.0,56.4,41.0,78,74,63,30.04,29.98,13,1,13,0.00
2013-8-5,69.0,60.9,53.0,61.0,52.7,44.0,76,75,73,30.25,30.02,23,4,23,0.01
2013-8-6,77.0,63.4,50.0,69.0,55.2,41.0,78,75,73,30.41,30.24,15,1,16,0.00
2013-8-7,72.0,59.9,50.0,64.0,51.2,39.0,77,73,66,30.48,30.39,16,4,17,0.00
2013-8-8,61.0,58.7,54.0,49.0,45.3,40.0,69,61,54,30.41,30.30,15,2,17,0.17
2013-8-9,67.0,63.0,60.0,53.0,46.1,41.0,65,54,44,30.31,29.94,20,3,20,1.42
2013-8-10,77.0,67.9,56.0,69.0,54.8,39.0,78,65,43,30.21,29.95,18,2,19,0.00
2013-8-11,78.0,63.3,50.0,71.0,55.2,41.0,78,75,73,30.29,30.20,15,2,16,0.00
2013-8-12,78.0,64.1,53.0,71.0,55.6,42.0,78,74,63,30.25,30.17,17,1,19,0.00
2013-8-13,67.0,60.2,53.0,59.0,47.5,39.0,75,64,46,30.17,29.97,12,4,17,0.00
2013-8-14,74.0,61.7,57.0,65.0,45.7,33.0,77,57,38,30.06,29.85,17,3,19,0.00
2013-8-15,74.0,62.3,50.0,66.0,54.2,41.0,77,75,72,30.32,30.06,16,1,16,0.00
2013-8-16,73.0,60.9,50.0,65.0,51.4,35.0,77,71,51,30.43,30.30,18,3,19,0.00
2013-8-17,76.0,63.3,51.0,68.0,53.2,35.0,78,70,48,30.52,30.43,19,2,19,0.00
2013-8-18,77.0,63.0,51.0,68.0,53.8,38.0,78,73,55,30.53,30.29,10,0,10,0.00
2013-8-19,82.0,68.3,56.0,73.0,58.2,39.0,78,71,50,30.29,30.15,13,1,13,0.00
2013-8-20,83.0,70.0,61.0,75.0,62.0,53.0,78,76,74,30.33,30.19,12,2,13,0.00
2013-8-21,84.0,69.3,58.0,75.0,60.5,44.0,78,74,59,30.39,30.25,15,1,15,0.00
2013-8-22,83.0,70.2,59.0,75.0,60.5,42.0,78,72,52,30.25,30.01,13,1,13,0.00
2013-8-23,74.0,65.7,56.0,65.0,56.9,47.0,77,74,65,30.37,30.01,24,5,25,0.00
2013-8-24,75.0,62.9,50.0,67.0,54.8,41.0,77,75,73,30.56,30.38,19,3,19,0.00
2013-8-25,80.0,62.0,49.0,72.0,53.1,35.0,78,73,59,30.60,30.40,15,1,15,0.00
2013-8-26,74.0,62.1,54.0,66.0,52.5,43.0,77,71,63,30.40,30.12,9,0,10,0.00
2013-8-27,74.0,66.0,58.0,66.0,55.5,42.0,77,69,54,30.17,30.09,13,3,13,0.00
2013-8-28,73.0,63.0,59.0,65.0,50.9,42.0,77,66,52,30.27,30.15,14,3,14,0.08
2013-8-29,63.0,60.1,55.0,55.0,51.0,46.0,75,73,67,30.37,30.25,22,7,22,0.01
2013-8-30,73.0,61.0,50.0,65.0,51.8,38.0,77,72,60,30.25,30.03,11,2,12,0.03
2013-8-31,74.0,64.2,60.0,65.0,48.9,37.0,76,58,40,30.11,30.02,14,2,14,0.22
2013-9-1,75.0,66.4,62.0,67.0,47.8,29.0,76,54,29,30.21,30.02,11,2,11,0.03
2013-9-2,63.0,61.0,59.0,51.0,44.0,38.0,69,54,42,30.23,30.01,23,8,23,2.11
2013-9-3,72.0,64.1,61.0,61.0,45.8,36.0,75,53,38,30.03,29.96,14,2,14,0.09
2013-9-4,78.0,66.9,60.0,71.0,54.6,39.0,78,66,47,30.14,29.97,15,1,15,0.00
2013-9-5,65.0,56.7,49.0,57.0,47.5,40.0,76,72,62,30.35,30.10,16,2,16,0.45
2013-9-6,68.0,55.1,42.0,60.0,46.7,33.0,76,74,71,30.45,30.27,12,1,12,0.00
2013-9-7,72.0,59.8,48.0,64.0,50.1,33.0,77,71,53,30.27,30.02,13,0,13,0.01
2013-9-8,60.0,55.6,44.0,52.0,46.0,36.0,75,70,61,30.25,29.92,24,2,25,0.32
2013-9-9,64.0,52.8,41.0,56.0,44.3,32.0,76,73,68,30.43,30.25,14,1,19,0.00
2013-9-10,67.0,58.7,52.0,59.0,49.5,40.0,76,72,63,30.37,30.31,15,1,15,0.00
2013-9-11,76.0,62.3,56.0,68.0,49.3,35.0,78,63,44,30.31,30.16,17,2,17,0.05
2013-9-12,71.0,64.3,61.0,62.0,50.1,43.0,75,61,48,30.27,29.93,16,2,16,0.18
2013-9-13,63.0,61.1,57.0,46.0,41.0,37.0,59,48,41,29.93,29.84,23,2,23,0.64
2013-9-14,73.0,60.1,52.0,65.0,48.8,37.0,77,67,46,30.23,29.89,15,1,15,0.00
2013-9-15,66.0,56.3,46.0,58.0,47.3,35.0,76,72,62,30.37,30.23,13,1,13,0.00
2013-9-16,61.0,53.0,44.0,53.0,41.9,35.0,75,66,49,30.46,30.19,25,3,25,0.01
2013-9-17,63.0,48.8,37.0,55.0,40.3,29.0,75,72,65,30.60,30.45,23,4,23,0.00
2013-9-18,72.0,55.6,42.0,64.0,46.1,28.0,77,70,55,30.51,30.31,10,0,10,0.00
2013-9-19,76.0,59.3,46.0,67.0,49.8,32.0,77,71,58,30.37,30.27,12,1,14,0.00
2013-9-20,73.0,57.0,46.0,64.0,47.6,31.0,77,71,52,30.36,30.25,15,2,15,0.00
2013-9-21,66.0,57.1,50.0,58.0,40.9,28.0,76,56,33,30.29,30.06,18,5,18,0.00
2013-9-22,63.0,59.2,52.0,48.0,39.1,29.0,63,48,36,30.06,29.86,23,4,29,0.60
2013-9-23,55.0,49.6,44.0,42.0,37.2,29.0,64,62,53,30.11,29.93,28,5,28,0.01
2013-9-24,50.0,47.8,44.0,37.0,35.4,31.0,63,61,58,30.10,30.02,19,3,19,0.04
2013-9-25,57.0,50.9,47.0,47.0,40.8,35.0,72,69,64,30.17,30.04,19,5,23,0.00
2013-9-26,60.0,53.6,46.0,50.0,44.6,35.0,72,71,66,30.35,30.17,25,8,25,0.00
2013-9-27,69.0,57.6,50.0,60.0,47.9,36.0,74,71,57,30.47,30.34,21,5,22,0.00
2013-9-28,66.0,54.6,46.0,54.0,40.1,26.0,66,58,44,30.59,30.47,10,2,11,0.00
2013-9-29,62.0,52.0,42.0,51.0,35.6,23.0,71,53,40,30.49,30.35,15,2,15,0.00
2013-9-30,59.0,51.9,42.0,50.0,38.9,23.0,72,61,46,30.37,30.19,10,2,11,0.00
2013-10-1,72.0,58.3,50.0,59.0,44.0,31.0,66,59,45,30.19,30.06,22,4,22,0.00
2013-10-2,75.0,61.3,50.0,65.0,46.4,28.0,70,58,44,30.10,29.98,13,1,15,0.00
2013-10-3,71.0,59.9,48.0,59.0,47.4,33.0,66,63,58,30.30,30.10,19,2,20,0.00
2013-10-4,66.0,55.7,44.0,53.0,41.4,29.0,63,59,55,30.34,30.25,15,2,15,0.00
2013-10-5,60.0,52.8,48.0,46.0,38.6,33.0,61,58,54,30.39,30.32,9,2,9,0.00
2013-10-6,54.0,49.0,42.0,40.0,34.4,28.0,59,56,53,30.54,30.37,17,4,20,0.11
2013-10-7,62.0,55.6,47.0,43.0,35.4,28.0,56,47,29,30.47,30.05,26,10,28,0.22
2013-10-8,63.0,53.7,41.0,44.0,37.0,26.0,61,54,33,30.61,30.06,25,4,25,0.01
2013-10-9,56.0,46.3,35.0,42.0,31.4,18.0,60,55,47,30.72,30.58,15,2,16,0.00
2013-10-10,63.0,48.1,37.0,48.0,30.3,16.0,59,50,37,30.58,30.41,13,1,13,0.00
2013-10-11,66.0,52.3,43.0,49.0,32.8,16.0,57,47,33,30.45,30.37,14,1,15,0.00
2013-10-12,56.0,50.1,41.0,37.0,31.5,18.0,51,48,43,30.64,30.45,18,5,18,0.00
2013-10-13,56.0,46.9,40.0,38.0,28.5,18.0,54,48,39,30.72,30.60,16,2,16,0.00
2013-10-14,59.0,49.3,37.0,42.0,29.1,14.0,54,45,35,30.60,30.48,14,1,15,0.00
2013-10-15,61.0,53.0,47.0,42.0,33.4,23.0,52,47,41,30.53,30.45,10,2,11,0.00
2013-10-16,55.0,52.1,49.0,33.0,27.0,23.0,44,38,33,30.46,30.12,19,4,19,0.01
2013-10-17,59.0,53.1,50.0,58.0,14.9,-40.0,100,34,1,30.12,29.98,12,2,12,0.00
2013-10-18,62.0,53.4,47.0,46.0,30.8,21.0,55,42,30,30.02,29.81,20,3,20,0.20
2013-10-19,61.0,51.2,42.0,43.0,32.2,23.0,52,48,44,30.17,30.01,13,1,13,0.00
2013-10-20,59.0,52.3,43.0,41.0,33.6,26.0,54,48,44,30.13,29.89,16,1,17,0.01
2013-10-21,57.0,46.7,37.0,38.0,27.6,18.0,50,46,43,30.29,30.13,18,1,18,0.00
2013-10-22,59.0,51.2,44.0,38.0,29.6,23.0,46,43,38,30.22,29.91,20,2,20,0.03
2013-10-23,53.0,43.6,35.0,33.0,23.5,11.0,49,44,36,29.98,29.77,15,1,16,0.00
2013-10-24,48.0,42.3,33.0,28.0,23.2,14.0,47,45,42,29.97,29.78,15,1,16,0.00
2013-10-25,48.0,40.5,33.0,28.0,20.4,14.0,46,43,41,30.25,29.97,16,2,16,0.00
2013-10-26,49.0,39.6,29.0,28.0,19.4,11.0,45,43,40,30.31,30.07,19,1,19,0.03
2013-10-27,50.0,43.5,37.0,29.0,22.8,16.0,47,43,38,30.16,29.98,14,1,15,0.08
2013-10-28,52.0,40.1,30.0,32.0,21.4,11.0,47,46,44,30.51,30.15,22,2,23,0.00
2013-10-29,44.0,33.7,27.0,24.0,16.1,8.0,48,46,44,30.64,30.51,13,2,13,0.00
2013-10-30,45.0,34.0,25.0,24.0,14.5,8.0,45,42,39,30.53,30.36,9,0,9,0.00
2013-10-31,56.0,41.9,27.0,28.0,19.6,8.0,45,40,33,30.45,30.02,17,2,17,0.31
2013-11-1,61.0,57.4,55.0,36.0,31.1,26.0,42,36,31,30.02,29.59,24,4,28,0.50
2013-11-2,60.0,51.4,41.0,40.0,31.1,18.0,51,45,41,29.96,29.75,17,1,18,0.00
2013-11-3,46.0,36.0,30.0,26.0,17.6,14.0,49,45,41,30.57,29.95,26,10,26,0.02
2013-11-4,37.0,31.2,25.0,21.0,15.0,11.0,50,48,47,30.89,30.57,25,6,25,0.00
2013-11-5,44.0,35.1,27.0,26.0,17.3,11.0,48,46,42,30.92,30.69,15,1,15,0.00
2013-11-6,51.0,44.0,33.0,29.0,22.7,11.0,44,42,37,30.69,30.22,22,1,22,0.00
2013-11-7,56.0,49.7,35.0,33.0,27.2,14.0,42,41,38,30.22,29.84,19,2,19,0.19
2013-11-8,45.0,36.8,28.0,24.0,16.9,11.0,45,42,41,30.09,29.91,15,2,15,0.00
2013-11-9,40.0,34.8,29.0,21.0,15.9,11.0,45,44,42,30.29,30.09,22,3,22,0.00
2013-11-10,45.0,38.0,31.0,23.0,16.4,11.0,45,39,33,30.27,29.87,22,2,23,0.15
2013-11-11,43.0,37.5,34.0,21.0,15.4,11.0,42,39,34,30.16,29.89,21,2,21,0.01
2013-11-12,44.0,32.3,25.0,23.0,13.0,8.0,42,42,41,30.22,30.00,22,4,23,0.00
2013-11-13,30.0,25.5,20.0,11.0,7.0,4.0,44,42,40,30.35,30.22,22,4,23,0.00
2013-11-14,43.0,33.9,23.0,21.0,13.7,4.0,42,41,40,30.26,30.15,13,1,13,0.00
2013-11-15,51.0,36.7,27.0,28.0,15.0,4.0,43,39,32,30.37,30.25,9,0,9,0.00
2013-11-16,47.0,37.6,30.0,23.0,14.1,8.0,40,36,32,30.54,30.37,8,0,8,0.00
2013-11-17,49.0,41.9,30.0,23.0,15.9,8.0,35,33,28,30.58,30.22,24,6,26,0.01
2013-11-18,56.0,49.8,39.0,31.0,20.9,11.0,39,31,27,30.22,29.70,32,5,32,0.72
2013-11-19,42.0,35.4,31.0,16.0,13.2,11.0,41,38,30,30.29,29.74,25,6,26,0.00
2013-11-20,35.0,29.3,25.0,14.0,10.3,8.0,44,42,41,30.80,30.29,27,6,28,0.00
2013-11-21,44.0,32.3,21.0,23.0,12.3,4.0,44,41,37,30.80,30.52,10,0,10,0.00
2013-11-22,41.0,34.0,28.0,16.0,11.7,4.0,38,37,36,30.52,29.93,11,0,11,0.00
2013-11-23,38.0,32.5,26.0,14.0,10.3,4.0,38,37,34,29.94,29.79,25,3,28,0.04
2013-11-24,26.0,20.1,17.0,4.0,0.7,0.0,41,40,35,30.07,29.77,30,8,31,0.00
2013-11-25,25.0,18.8,14.0,4.0,0.5,-6.0,42,40,37,30.49,30.07,23,4,25,0.00
2013-11-26,33.0,29.4,23.0,11.0,7.5,0.0,40,36,32,30.50,30.38,10,0,10,0.07
2013-11-27,53.0,47.7,33.0,31.0,17.0,-6.0,68,29,24,30.39,29.33,48,10,50,3.18
2013-11-28,40.0,27.7,18.0,28.0,3.6,0.0,64,33,26,30.53,29.43,24,4,24,0.05
2013-11-29,21.0,17.4,14.0,0.0,-2.7,-6.0,39,37,36,30.91,30.53,16,3,21,0.00
2013-11-30,30.0,19.3,9.0,8.0,-0.9,-13.0,42,38,34,31.00,30.62,12,0,12,0.00
2013-12-1,38.0,33.7,30.0,23.0,7.2,4.0,64,30,27,30.62,30.30,9,0,9,0.28
2013-12-2,42.0,38.0,32.0,26.0,9.5,-40.0,69,30,4,30.30,30.13,18,6,19,0.13
2013-12-3,38.0,36.0,31.0,8.0,-30.7,-40.0,32,5,1,30.13,30.00,16,3,20,0.01
2013-12-4,39.0,32.7,26.0,16.0,10.7,4.0,41,37,32,30.40,30.00,20,4,21,0.00
2013-12-5,48.0,35.1,23.0,16.0,10.2,0.0,39,33,25,30.48,30.14,19,4,20,0.02
2013-12-6,49.0,41.6,34.0,18.0,10.2,-40.0,29,25,23,30.28,30.06,16,1,16,0.13
2013-12-7,34.0,29.2,22.0,11.0,5.0,0.0,39,33,28,30.55,30.24,17,3,17,0.00
2013-12-8,24.0,19.8,15.0,4.0,1.6,0.0,44,40,38,30.79,30.54,22,2,22,0.00
2013-12-9,33.0,24.9,19.0,8.0,3.5,0.0,43,35,26,30.76,29.99,22,8,22,0.05
2013-12-10,31.0,25.3,18.0,4.0,-1.3,-6.0,31,28,26,30.04,29.89,10,0,11,0.01
2013-12-11,29.0,19.7,12.0,4.0,-2.6,-13.0,34,31,28,30.28,30.04,18,1,18,0.00
2013-12-12,16.0,10.3,6.0,-6.0,-9.0,-13.0,39,36,31,30.41,30.15,19,2,19,0.00
2013-12-13,23.0,13.4,1.0,0.0,-5.4,-13.0,43,37,32,30.54,30.03,25,2,25,0.00
2013-12-14,9.0,3.5,-3.0,-6.0,-10.8,-23.0,44,42,39,30.81,30.54,16,3,16,0.00
2013-12-15,20.0,12.8,6.0,-6.0,-9.5,-13.0,40,31,29,30.63,29.50,33,9,33,0.00
2013-12-16,20.0,12.4,1.0,0.0,-8.5,-13.0,38,33,30,30.36,29.81,20,2,21,0.00
2013-12-17,13.0,5.5,-7.0,-6.0,-11.4,-23.0,40,37,33,30.50,30.22,12,2,12,0.00
2013-12-18,19.0,15.8,10.0,-6.0,-6.3,-13.0,33,32,31,30.22,29.98,26,4,26,0.00
2013-12-19,31.0,23.8,11.0,4.0,-1.5,-13.0,33,29,28,30.26,30.09,7,0,7,0.06
2013-12-20,34.0,29.6,23.0,4.0,2.3,-6.0,29,28,27,30.33,30.10,9,0,9,0.04
2013-12-21,32.0,29.7,26.0,4.0,0.7,0.0,28,25,24,30.17,30.01,14,2,16,0.09
2013-12-22,30.0,28.4,26.0,0.0,0.0,-6.0,26,26,23,30.28,30.07,17,1,20,0.20
2013-12-23,31.0,28.6,25.0,0.0,-0.3,-6.0,26,24,21,30.29,30.15,0,0,0,0.00
2013-12-24,30.0,17.0,8.0,0.0,-8.9,-13.0,26,25,21,30.32,30.22,9,0,9,0.00
2013-12-25,15.0,8.5,4.0,-13.0,-13.0,-23.0,31,28,27,30.75,30.31,9,0,9,0.00
2013-12-26,27.0,18.1,7.0,0.0,-7.0,-13.0,29,27,23,30.71,30.22,0,0,0,0.00
2013-12-27,27.0,19.9,15.0,0.0,-6.8,-13.0,28,26,23,30.37,30.26,0,0,0,0.00
2013-12-28,33.0,24.9,14.0,4.0,-3.6,-13.0,28,26,24,30.34,30.10,8,0,8,0.02
2013-12-29,36.0,30.0,24.0,4.0,-0.1,-6.0,26,23,22,30.23,29.68,14,2,15,0.43
2013-12-30,29.0,18.3,14.0,0.0,-7.6,-13.0,28,27,22,29.92,29.63,22,3,22,0.01